• pl
  • eng

Awiacja
NEWS
last updated: 12.09.2019 14:49<\/div>
Dear users,
We would like to inform you that from September 2nd a test form of the GAFOR forecast is available on our webpage. Please send your comments and suggestions to gafor@imgw.pl that will contribute to product development.
Click on the bold red name to decode a message. 02:01 22.09.2019
  • WIND
  • SIGNIFICANT EURO
  • SIGNIFICANT
  • SIGMET
  • AIRMET
  • TAF FC
  • TAF FT
  • METAR GG30
  • METAR GG00


METAR EPBY 220000Z VRB02KT CAVOK 06/06 Q1019 =

METAR EPGD 220000Z 26002KT CAVOK 09/09 Q1018 =

METAR EPKK 220000Z 04002KT CAVOK 06/05 Q1022 =

METAR EPKT 220000Z VRB01KT CAVOK 07/05 Q1021 =

METAR EPLB 220000Z 29005KT CAVOK 08/07 Q1020 =

METAR EPLL 220000Z 07003KT 1100 R25/2000N MIFG BR NSC 06/06 Q1020 =

METAR EPMO 220000Z 23003KT 6000 MIFG NSC 08/08 Q1020 =

METAR EPPO 220000Z 11004KT 8000 NSC 09/08 Q1020 =

METAR EPRA 220000Z NIL=

METAR EPRZ 220000Z 23005KT CAVOK 08/06 Q1022 =

METAR EPSC 220000Z 12006KT 9999 MIFG NSC 09/09 Q1019 =

METAR EPSY 220000Z NIL=

METAR EPWA 220000Z 19002KT 7000 1100W R33/2000N R29/2000N NSC 06/06
Q1020 TEMPO 1500 BR=

METAR EPWR 220000Z 12002KT 9999 MIFG NSC 07/06 Q1020 =

METAR EPZG 220000Z NIL=
Awiacja.imgw.pl jest pogodowym serwisem informacyjnym
Instytutu Meteorologii i Gospodarki Wodnej Państwowego Instytutu Badawczego.
Copyright IMGW PIB 2009-2011© Wszelkie prawa zastrzeżone.